RYR1448 EGBB-GCRR
Flight info
| Callsign | RYR1448 |
|---|---|
| Flight time | N/A |
| Altitude | 35000 |
| Route | BRUMI N92 ZESPE DCT PACSE DCT TONQU DCT SALCO DCT EBOMO DCT IBISU DCT ERWAN DCT BALDA DCT ABUPI DCT GAIOS DCT SGR DCT TAKAV DCT VEDOD UN857 TERTO |
| Aircraft | B738/M-SDE3FGILRWY/SB1 |
Departure
| Time | N/A |
|---|---|
| Airport | Birmingham Airport (EGBB) |
Arrival
| Time | 2026-05-06 11:59 |
|---|---|
| Airport | César Manrique-Lanzarote Airport (GCRR) |
| Time | Latitude | Longitude | Altitude | Speed | Heading |
|---|---|---|---|---|---|
| 2026-05-06 10:06 | 39.08146 | -8.25210 | 35019 ft | 425 kts | 199° |
| 2026-05-06 10:06 | 39.05290 | -8.26253 | 35004 ft | 425 kts | 199° |
| 2026-05-06 10:07 | 38.99602 | -8.28328 | 35015 ft | 425 kts | 199° |
| 2026-05-06 10:07 | 38.93915 | -8.30399 | 35023 ft | 425 kts | 199° |
| 2026-05-06 10:08 | 38.88228 | -8.32466 | 35020 ft | 425 kts | 199° |
| 2026-05-06 10:08 | 38.82542 | -8.34530 | 35021 ft | 425 kts | 199° |
| 2026-05-06 10:09 | 38.76856 | -8.36590 | 35016 ft | 424 kts | 199° |
| 2026-05-06 10:09 | 38.71174 | -8.38646 | 35021 ft | 424 kts | 199° |
| 2026-05-06 10:10 | 38.65491 | -8.40698 | 35020 ft | 424 kts | 199° |
| 2026-05-06 10:10 | 38.59811 | -8.42746 | 35015 ft | 424 kts | 199° |
| 2026-05-06 10:11 | 38.54129 | -8.44791 | 35015 ft | 424 kts | 199° |
| 2026-05-06 10:11 | 38.48452 | -8.46832 | 35015 ft | 424 kts | 199° |
| 2026-05-06 10:12 | 38.42781 | -8.48867 | 35018 ft | 423 kts | 199° |
| 2026-05-06 10:12 | 38.37150 | -8.50884 | 35020 ft | 423 kts | 199° |
| 2026-05-06 10:13 | 38.31486 | -8.52911 | 35011 ft | 422 kts | 199° |
| 2026-05-06 10:13 | 38.25824 | -8.54924 | 35019 ft | 422 kts | 199° |
| 2026-05-06 10:14 | 38.20162 | -8.56870 | 35024 ft | 421 kts | 199° |
| 2026-05-06 10:14 | 38.14502 | -8.58798 | 35018 ft | 421 kts | 199° |
| 2026-05-06 10:15 | 38.08845 | -8.60727 | 35035 ft | 420 kts | 199° |
| 2026-05-06 10:15 | 38.03196 | -8.62656 | 35020 ft | 421 kts | 199° |
| 2026-05-06 10:16 | 37.97544 | -8.64584 | 35035 ft | 420 kts | 199° |
| 2026-05-06 10:16 | 37.91890 | -8.66510 | 35023 ft | 421 kts | 199° |
| 2026-05-06 10:17 | 37.86240 | -8.68432 | 35011 ft | 421 kts | 199° |
| 2026-05-06 10:17 | 37.80588 | -8.70350 | 35027 ft | 420 kts | 199° |
| 2026-05-06 10:18 | 37.74936 | -8.72267 | 35030 ft | 421 kts | 199° |
| 2026-05-06 10:18 | 37.69492 | -8.74109 | 35035 ft | 421 kts | 199° |
| 2026-05-06 10:19 | 37.63827 | -8.76024 | 35027 ft | 422 kts | 199° |
| 2026-05-06 10:19 | 37.58156 | -8.77937 | 35021 ft | 422 kts | 199° |
| 2026-05-06 10:20 | 37.52503 | -8.79841 | 35029 ft | 422 kts | 199° |
| 2026-05-06 10:20 | 37.46833 | -8.81748 | 35030 ft | 422 kts | 199° |
| 2026-05-06 10:21 | 37.42014 | -8.83367 | 35030 ft | 421 kts | 199° |
| 2026-05-06 10:21 | 37.36386 | -8.85254 | 35019 ft | 421 kts | 199° |
| 2026-05-06 10:22 | 37.30737 | -8.87146 | 35030 ft | 420 kts | 199° |
| 2026-05-06 10:22 | 37.25096 | -8.89032 | 35018 ft | 419 kts | 199° |
| 2026-05-06 10:23 | 37.19470 | -8.90910 | 35025 ft | 418 kts | 199° |
| 2026-05-06 10:23 | 37.13864 | -8.92780 | 35009 ft | 417 kts | 199° |
| 2026-05-06 10:24 | 37.08262 | -8.94644 | 35029 ft | 416 kts | 199° |
| 2026-05-06 10:24 | 37.02890 | -8.96633 | 35026 ft | 413 kts | 201° |
| 2026-05-06 10:25 | 36.97952 | -8.98583 | 35029 ft | 412 kts | 201° |
| 2026-05-06 10:25 | 36.92847 | -9.00588 | 35031 ft | 411 kts | 201° |
| 2026-05-06 10:26 | 36.87792 | -9.02549 | 35020 ft | 410 kts | 201° |
| 2026-05-06 10:26 | 36.83503 | -9.04202 | 35026 ft | 409 kts | 201° |
| 2026-05-06 10:27 | 36.78172 | -9.06251 | 35031 ft | 408 kts | 201° |
| 2026-05-06 10:27 | 36.72878 | -9.08282 | 35033 ft | 408 kts | 201° |
| 2026-05-06 10:28 | 36.67624 | -9.10297 | 35033 ft | 411 kts | 201° |
| 2026-05-06 10:28 | 36.62268 | -9.12348 | 35042 ft | 416 kts | 201° |
| 2026-05-06 10:29 | 36.56797 | -9.14438 | 35031 ft | 416 kts | 201° |
| 2026-05-06 10:29 | 36.51272 | -9.16544 | 35032 ft | 416 kts | 201° |
| 2026-05-06 10:30 | 36.45747 | -9.18648 | 35040 ft | 415 kts | 201° |
| 2026-05-06 10:30 | 36.40237 | -9.20744 | 35034 ft | 413 kts | 201° |
| 2026-05-06 10:31 | 36.34751 | -9.22827 | 35024 ft | 411 kts | 201° |
| 2026-05-06 10:31 | 36.29292 | -9.24897 | 35041 ft | 409 kts | 201° |
| 2026-05-06 10:32 | 36.23864 | -9.26953 | 35039 ft | 407 kts | 201° |
| 2026-05-06 10:32 | 36.18459 | -9.28997 | 35041 ft | 405 kts | 201° |
| 2026-05-06 10:33 | 36.13071 | -9.31032 | 35025 ft | 404 kts | 201° |
| 2026-05-06 10:33 | 36.07706 | -9.33056 | 35035 ft | 403 kts | 201° |
| 2026-05-06 10:34 | 36.02351 | -9.35074 | 35045 ft | 402 kts | 201° |
| 2026-05-06 10:34 | 35.97001 | -9.37101 | 35041 ft | 401 kts | 203° |
| 2026-05-06 10:35 | 35.91939 | -9.39869 | 35047 ft | 398 kts | 210° |
| 2026-05-06 10:35 | 35.86989 | -9.42845 | 35034 ft | 400 kts | 210° |
| 2026-05-06 10:36 | 35.81950 | -9.45856 | 35055 ft | 406 kts | 209° |
| 2026-05-06 10:36 | 35.76832 | -9.48880 | 35054 ft | 410 kts | 209° |
| 2026-05-06 10:37 | 35.71656 | -9.51918 | 35052 ft | 414 kts | 209° |
| 2026-05-06 10:37 | 35.66437 | -9.54972 | 35046 ft | 415 kts | 209° |
| 2026-05-06 10:38 | 35.61273 | -9.57986 | 35036 ft | 406 kts | 209° |
| 2026-05-06 10:38 | 35.56175 | -9.60960 | 35050 ft | 406 kts | 209° |
| 2026-05-06 10:39 | 35.51077 | -9.63933 | 35049 ft | 406 kts | 209° |
| 2026-05-06 10:39 | 35.45973 | -9.66905 | 35050 ft | 406 kts | 209° |
| 2026-05-06 10:40 | 35.40863 | -9.69875 | 35052 ft | 407 kts | 209° |
| 2026-05-06 10:40 | 35.35776 | -9.72827 | 35038 ft | 407 kts | 209° |
| 2026-05-06 10:41 | 35.30653 | -9.75797 | 35051 ft | 408 kts | 209° |
| 2026-05-06 10:41 | 35.25525 | -9.78765 | 35049 ft | 408 kts | 209° |
| 2026-05-06 10:42 | 35.20391 | -9.81731 | 35046 ft | 408 kts | 209° |
| 2026-05-06 10:42 | 35.15256 | -9.84695 | 35045 ft | 409 kts | 209° |
| 2026-05-06 10:43 | 35.10110 | -9.87661 | 35062 ft | 410 kts | 209° |
| 2026-05-06 10:44 | 35.02373 | -9.92112 | 35048 ft | 410 kts | 209° |
| 2026-05-06 10:44 | 34.97204 | -9.95081 | 35051 ft | 411 kts | 209° |
| 2026-05-06 10:45 | 34.92026 | -9.98050 | 35048 ft | 411 kts | 209° |
| 2026-05-06 10:45 | 34.86845 | -10.01017 | 35055 ft | 411 kts | 208° |
| 2026-05-06 10:46 | 34.81666 | -10.03979 | 35038 ft | 410 kts | 209° |
| 2026-05-06 10:46 | 34.76507 | -10.06924 | 35045 ft | 409 kts | 209° |
| 2026-05-06 10:47 | 34.71400 | -10.09836 | 35051 ft | 407 kts | 209° |
| 2026-05-06 10:47 | 34.66281 | -10.12752 | 35050 ft | 405 kts | 209° |
| 2026-05-06 10:48 | 34.61184 | -10.15651 | 35053 ft | 404 kts | 209° |
| 2026-05-06 10:48 | 34.56100 | -10.18538 | 35031 ft | 403 kts | 209° |
| 2026-05-06 10:49 | 34.51034 | -10.21412 | 35037 ft | 402 kts | 209° |
| 2026-05-06 10:49 | 34.45973 | -10.24279 | 35053 ft | 402 kts | 209° |
| 2026-05-06 10:50 | 34.40900 | -10.27150 | 35054 ft | 403 kts | 209° |
| 2026-05-06 10:50 | 34.35801 | -10.30031 | 35060 ft | 405 kts | 209° |
| 2026-05-06 10:51 | 34.30675 | -10.32923 | 35057 ft | 408 kts | 209° |
| 2026-05-06 10:51 | 34.25527 | -10.35824 | 35049 ft | 409 kts | 209° |
| 2026-05-06 10:52 | 34.20364 | -10.38728 | 35057 ft | 410 kts | 209° |
| 2026-05-06 10:52 | 34.15228 | -10.41614 | 35053 ft | 410 kts | 209° |
| 2026-05-06 10:53 | 34.10060 | -10.44513 | 35053 ft | 410 kts | 209° |
| 2026-05-06 10:53 | 34.04894 | -10.47407 | 35055 ft | 409 kts | 209° |
| 2026-05-06 10:54 | 33.99747 | -10.50286 | 35046 ft | 407 kts | 209° |
| 2026-05-06 10:54 | 33.94625 | -10.53148 | 35048 ft | 404 kts | 209° |
| 2026-05-06 10:55 | 33.89533 | -10.55990 | 35047 ft | 402 kts | 209° |
| 2026-05-06 10:55 | 33.84466 | -10.58814 | 35047 ft | 401 kts | 209° |
| 2026-05-06 10:56 | 33.79405 | -10.61632 | 35061 ft | 401 kts | 209° |
| 2026-05-06 10:56 | 33.74330 | -10.64455 | 35039 ft | 403 kts | 209° |
| 2026-05-06 10:57 | 33.69233 | -10.67285 | 35049 ft | 404 kts | 209° |
| 2026-05-06 10:57 | 33.64122 | -10.70119 | 35052 ft | 406 kts | 209° |
| 2026-05-06 10:58 | 33.58989 | -10.72961 | 35060 ft | 407 kts | 209° |
| 2026-05-06 10:58 | 33.53839 | -10.75809 | 35059 ft | 408 kts | 209° |
| 2026-05-06 10:59 | 33.48680 | -10.78658 | 35057 ft | 408 kts | 209° |
| 2026-05-06 10:59 | 33.43522 | -10.81502 | 35047 ft | 407 kts | 209° |
| 2026-05-06 11:00 | 33.38380 | -10.84333 | 35051 ft | 406 kts | 209° |
| 2026-05-06 11:00 | 33.33251 | -10.87154 | 35068 ft | 405 kts | 209° |
| 2026-05-06 11:01 | 33.28139 | -10.89963 | 35055 ft | 404 kts | 209° |
| 2026-05-06 11:01 | 33.23038 | -10.92762 | 35051 ft | 403 kts | 209° |
| 2026-05-06 11:02 | 33.17946 | -10.95552 | 35043 ft | 404 kts | 209° |
| 2026-05-06 11:02 | 33.12803 | -10.98369 | 35056 ft | 409 kts | 209° |
| 2026-05-06 11:03 | 33.07623 | -11.01201 | 35058 ft | 411 kts | 209° |
| 2026-05-06 11:03 | 33.02417 | -11.04042 | 35058 ft | 412 kts | 209° |
| 2026-05-06 11:04 | 32.97234 | -11.06866 | 35054 ft | 412 kts | 209° |
| 2026-05-06 11:04 | 32.91991 | -11.09720 | 35056 ft | 411 kts | 209° |
| 2026-05-06 11:05 | 32.86833 | -11.12523 | 35053 ft | 410 kts | 209° |
| 2026-05-06 11:05 | 32.81656 | -11.15334 | 35053 ft | 408 kts | 209° |
| 2026-05-06 11:06 | 32.76502 | -11.18129 | 35059 ft | 406 kts | 209° |
| 2026-05-06 11:06 | 32.71364 | -11.20912 | 35054 ft | 405 kts | 209° |
| 2026-05-06 11:07 | 32.66243 | -11.23682 | 35055 ft | 404 kts | 209° |
| 2026-05-06 11:07 | 32.61132 | -11.26443 | 35048 ft | 403 kts | 209° |
| 2026-05-06 11:08 | 32.56032 | -11.29195 | 35056 ft | 403 kts | 209° |
| 2026-05-06 11:08 | 32.50932 | -11.31944 | 35054 ft | 403 kts | 209° |
| 2026-05-06 11:09 | 32.45817 | -11.34698 | 35056 ft | 405 kts | 209° |
| 2026-05-06 11:09 | 32.40671 | -11.37465 | 35065 ft | 408 kts | 209° |
| 2026-05-06 11:10 | 32.35490 | -11.40248 | 35044 ft | 410 kts | 209° |
| 2026-05-06 11:10 | 32.30278 | -11.43042 | 35056 ft | 412 kts | 209° |
| 2026-05-06 11:11 | 32.25035 | -11.45849 | 35058 ft | 414 kts | 209° |
| 2026-05-06 11:11 | 32.19775 | -11.48662 | 35054 ft | 415 kts | 209° |
| 2026-05-06 11:12 | 32.14510 | -11.51473 | 35053 ft | 415 kts | 208° |
| 2026-05-06 11:12 | 32.09251 | -11.54278 | 35054 ft | 414 kts | 208° |
| 2026-05-06 11:13 | 32.04009 | -11.57070 | 35041 ft | 412 kts | 208° |
| 2026-05-06 11:13 | 31.98797 | -11.59843 | 35048 ft | 410 kts | 208° |
| 2026-05-06 11:14 | 31.93609 | -11.62600 | 35056 ft | 408 kts | 208° |
| 2026-05-06 11:14 | 31.88447 | -11.65340 | 35052 ft | 406 kts | 208° |
| 2026-05-06 11:15 | 31.83302 | -11.68068 | 35050 ft | 405 kts | 208° |
| 2026-05-06 11:15 | 31.78173 | -11.70784 | 35047 ft | 403 kts | 208° |
| 2026-05-06 11:16 | 31.73920 | -11.73033 | 35044 ft | 403 kts | 208° |
| 2026-05-06 11:16 | 31.68812 | -11.75732 | 35053 ft | 402 kts | 208° |
| 2026-05-06 11:17 | 31.62884 | -11.78860 | 35056 ft | 402 kts | 208° |
| 2026-05-06 11:17 | 31.58605 | -11.81116 | 35055 ft | 402 kts | 208° |
| 2026-05-06 11:18 | 31.53493 | -11.83807 | 35053 ft | 403 kts | 208° |
| 2026-05-06 11:18 | 31.48378 | -11.86496 | 35044 ft | 403 kts | 208° |
| 2026-05-06 11:19 | 31.43262 | -11.89182 | 35048 ft | 403 kts | 208° |
| 2026-05-06 11:19 | 31.38150 | -11.91864 | 35050 ft | 403 kts | 208° |
| 2026-05-06 11:20 | 31.32203 | -11.94979 | 35046 ft | 403 kts | 208° |
| 2026-05-06 11:20 | 31.27954 | -11.97202 | 35053 ft | 402 kts | 208° |
| 2026-05-06 11:21 | 31.22841 | -11.99874 | 35025 ft | 402 kts | 208° |
| 2026-05-06 11:21 | 31.17753 | -12.02529 | 35030 ft | 400 kts | 208° |
| 2026-05-06 11:22 | 31.12690 | -12.05169 | 35040 ft | 398 kts | 208° |
| 2026-05-06 11:22 | 31.07652 | -12.07793 | 35052 ft | 396 kts | 208° |
| 2026-05-06 11:23 | 31.02610 | -12.10416 | 35046 ft | 397 kts | 208° |
| 2026-05-06 11:23 | 30.97565 | -12.13038 | 35043 ft | 398 kts | 208° |
| 2026-05-06 11:24 | 30.92507 | -12.15663 | 35046 ft | 397 kts | 209° |
| 2026-05-06 11:24 | 30.87464 | -12.18276 | 35041 ft | 396 kts | 209° |
| 2026-05-06 11:25 | 30.82438 | -12.20878 | 35036 ft | 394 kts | 209° |
| 2026-05-06 11:25 | 30.77446 | -12.23460 | 35042 ft | 392 kts | 209° |
| 2026-05-06 11:26 | 30.72481 | -12.26025 | 35041 ft | 390 kts | 209° |
| 2026-05-06 11:26 | 30.67536 | -12.28578 | 35041 ft | 388 kts | 209° |
| 2026-05-06 11:27 | 30.62621 | -12.31111 | 35031 ft | 385 kts | 210° |
| 2026-05-06 11:27 | 30.57759 | -12.33616 | 35037 ft | 380 kts | 210° |
| 2026-05-06 11:28 | 30.52941 | -12.36093 | 35029 ft | 377 kts | 210° |
| 2026-05-06 11:28 | 30.48470 | -12.39057 | 35041 ft | 366 kts | 220° |
| 2026-05-06 11:29 | 30.44391 | -12.42600 | 35045 ft | 370 kts | 220° |
| 2026-05-06 11:29 | 30.40209 | -12.46215 | 35052 ft | 380 kts | 220° |
| 2026-05-06 11:30 | 30.35923 | -12.49897 | 35042 ft | 384 kts | 220° |
| 2026-05-06 11:30 | 30.31707 | -12.53502 | 35017 ft | 366 kts | 220° |
| 2026-05-06 11:31 | 30.27641 | -12.56980 | 35045 ft | 363 kts | 220° |
| 2026-05-06 11:31 | 30.25599 | -12.58729 | 34709 ft | 370 kts | 220° |
| 2026-05-06 11:31 | 30.23535 | -12.60495 | 34233 ft | 369 kts | 220° |
| 2026-05-06 11:31 | 30.21477 | -12.62252 | 33658 ft | 367 kts | 220° |
| 2026-05-06 11:32 | 30.19418 | -12.64010 | 32984 ft | 368 kts | 220° |
| 2026-05-06 11:32 | 30.17360 | -12.65767 | 32339 ft | 368 kts | 220° |
| 2026-05-06 11:32 | 30.15328 | -12.67500 | 31702 ft | 368 kts | 220° |
| 2026-05-06 11:32 | 30.13255 | -12.69266 | 31229 ft | 373 kts | 220° |
| 2026-05-06 11:33 | 30.11142 | -12.71091 | 30718 ft | 386 kts | 222° |
| 2026-05-06 11:33 | 30.09155 | -12.73183 | 29933 ft | 389 kts | 230° |
| 2026-05-06 11:33 | 30.07377 | -12.75524 | 29281 ft | 387 kts | 230° |
| 2026-05-06 11:33 | 30.05606 | -12.77854 | 28739 ft | 384 kts | 230° |
| 2026-05-06 11:34 | 30.03846 | -12.80150 | 28220 ft | 380 kts | 230° |
| 2026-05-06 11:34 | 30.02095 | -12.82422 | 27733 ft | 377 kts | 230° |
| 2026-05-06 11:34 | 30.00356 | -12.84670 | 27259 ft | 374 kts | 230° |
| 2026-05-06 11:34 | 29.98628 | -12.86900 | 26794 ft | 371 kts | 230° |
| 2026-05-06 11:35 | 29.96900 | -12.89129 | 26335 ft | 375 kts | 230° |
| 2026-05-06 11:35 | 29.95155 | -12.91379 | 25869 ft | 377 kts | 230° |
| 2026-05-06 11:35 | 29.93408 | -12.93626 | 25400 ft | 375 kts | 230° |
| 2026-05-06 11:35 | 29.91630 | -12.95809 | 24925 ft | 373 kts | 224° |
| 2026-05-06 11:36 | 29.89565 | -12.97624 | 24461 ft | 374 kts | 216° |
| 2026-05-06 11:36 | 29.87287 | -12.99119 | 23829 ft | 380 kts | 208° |
| 2026-05-06 11:36 | 29.84814 | -13.00205 | 23302 ft | 381 kts | 202° |
| 2026-05-06 11:36 | 29.82305 | -13.01160 | 22799 ft | 379 kts | 202° |
| 2026-05-06 11:37 | 29.79811 | -13.02095 | 22329 ft | 375 kts | 202° |
| 2026-05-06 11:37 | 29.77343 | -13.03027 | 21883 ft | 371 kts | 202° |
| 2026-05-06 11:37 | 29.74906 | -13.03959 | 21432 ft | 368 kts | 202° |
| 2026-05-06 11:37 | 29.72492 | -13.04890 | 21026 ft | 363 kts | 202° |
| 2026-05-06 11:38 | 29.70108 | -13.05812 | 20587 ft | 360 kts | 202° |
| 2026-05-06 11:38 | 29.67738 | -13.06729 | 20178 ft | 358 kts | 202° |
| 2026-05-06 11:38 | 29.65389 | -13.07637 | 19761 ft | 355 kts | 203° |
| 2026-05-06 11:38 | 29.63056 | -13.08538 | 19344 ft | 353 kts | 203° |
| 2026-05-06 11:39 | 29.60738 | -13.09432 | 18929 ft | 350 kts | 203° |
| 2026-05-06 11:39 | 29.58432 | -13.10322 | 18524 ft | 349 kts | 203° |
| 2026-05-06 11:39 | 29.56139 | -13.11207 | 18063 ft | 348 kts | 203° |
| 2026-05-06 11:39 | 29.53851 | -13.12088 | 17615 ft | 345 kts | 203° |
| 2026-05-06 11:40 | 29.51609 | -13.12951 | 17183 ft | 343 kts | 203° |
| 2026-05-06 11:40 | 29.49325 | -13.13830 | 16801 ft | 340 kts | 202° |
| 2026-05-06 11:40 | 29.47087 | -13.14691 | 16480 ft | 338 kts | 202° |
| 2026-05-06 11:40 | 29.44880 | -13.15541 | 16157 ft | 341 kts | 202° |
| 2026-05-06 11:41 | 29.42624 | -13.16409 | 15830 ft | 343 kts | 202° |
| 2026-05-06 11:41 | 29.40329 | -13.17291 | 15495 ft | 343 kts | 202° |
| 2026-05-06 11:41 | 29.38096 | -13.18148 | 15166 ft | 342 kts | 202° |
| 2026-05-06 11:41 | 29.35843 | -13.19010 | 14836 ft | 341 kts | 202° |
| 2026-05-06 11:42 | 29.33566 | -13.19776 | 14508 ft | 341 kts | 199° |
| 2026-05-06 11:42 | 29.31244 | -13.20490 | 14175 ft | 341 kts | 199° |
| 2026-05-06 11:42 | 29.28958 | -13.21194 | 13846 ft | 340 kts | 199° |
| 2026-05-06 11:42 | 29.26709 | -13.21900 | 13484 ft | 339 kts | 199° |
| 2026-05-06 11:43 | 29.24437 | -13.22620 | 13130 ft | 338 kts | 199° |
| 2026-05-06 11:43 | 29.22181 | -13.23350 | 12787 ft | 336 kts | 200° |
| 2026-05-06 11:43 | 29.19946 | -13.24101 | 12457 ft | 334 kts | 200° |
| 2026-05-06 11:44 | 29.15513 | -13.25606 | 11783 ft | 331 kts | 200° |
| 2026-05-06 11:44 | 29.13308 | -13.26353 | 11471 ft | 330 kts | 200° |
| 2026-05-06 11:44 | 29.11115 | -13.27093 | 11152 ft | 327 kts | 200° |
| 2026-05-06 11:44 | 29.08950 | -13.27822 | 10833 ft | 322 kts | 200° |
| 2026-05-06 11:45 | 29.06812 | -13.28542 | 10518 ft | 318 kts | 200° |
| 2026-05-06 11:45 | 29.04703 | -13.29251 | 10222 ft | 314 kts | 200° |
| 2026-05-06 11:45 | 29.02620 | -13.29952 | 9972 ft | 309 kts | 200° |
| 2026-05-06 11:45 | 29.00609 | -13.30626 | 9979 ft | 294 kts | 200° |
| 2026-05-06 11:46 | 28.98688 | -13.31269 | 9947 ft | 282 kts | 200° |
| 2026-05-06 11:46 | 28.96848 | -13.31923 | 9823 ft | 273 kts | 202° |
| 2026-05-06 11:46 | 28.95061 | -13.32607 | 9577 ft | 270 kts | 202° |
| 2026-05-06 11:46 | 28.93302 | -13.33282 | 9435 ft | 263 kts | 202° |
| 2026-05-06 11:47 | 28.91586 | -13.33938 | 9236 ft | 258 kts | 202° |
| 2026-05-06 11:47 | 28.89882 | -13.34589 | 8945 ft | 258 kts | 202° |
| 2026-05-06 11:47 | 28.88189 | -13.35256 | 8651 ft | 258 kts | 204° |
| 2026-05-06 11:47 | 28.86496 | -13.35928 | 8340 ft | 258 kts | 203° |
| 2026-05-06 11:48 | 28.84798 | -13.36603 | 8024 ft | 259 kts | 203° |
| 2026-05-06 11:48 | 28.83120 | -13.37267 | 7932 ft | 251 kts | 202° |
| 2026-05-06 11:48 | 28.81498 | -13.37908 | 7802 ft | 244 kts | 204° |
| 2026-05-06 11:48 | 28.79899 | -13.38541 | 7553 ft | 243 kts | 202° |
| 2026-05-06 11:49 | 28.78289 | -13.39179 | 7170 ft | 248 kts | 203° |
| 2026-05-06 11:49 | 28.76638 | -13.39833 | 6819 ft | 253 kts | 202° |
| 2026-05-06 11:49 | 28.74981 | -13.40486 | 6615 ft | 250 kts | 203° |
| 2026-05-06 11:49 | 28.73342 | -13.41132 | 6361 ft | 250 kts | 202° |
| 2026-05-06 11:50 | 28.71686 | -13.41796 | 5931 ft | 255 kts | 207° |
| 2026-05-06 11:50 | 28.70300 | -13.42968 | 5684 ft | 247 kts | 237° |
| 2026-05-06 11:50 | 28.69664 | -13.44746 | 5507 ft | 243 kts | 265° |
| 2026-05-06 11:50 | 28.69761 | -13.46646 | 5341 ft | 241 kts | 285° |
| 2026-05-06 11:51 | 28.70232 | -13.48482 | 5133 ft | 243 kts | 289° |
| 2026-05-06 11:51 | 28.70753 | -13.50312 | 4941 ft | 242 kts | 289° |
| 2026-05-06 11:51 | 28.71263 | -13.52127 | 4741 ft | 239 kts | 289° |
| 2026-05-06 11:51 | 28.71756 | -13.53915 | 4554 ft | 234 kts | 289° |
| 2026-05-06 11:52 | 28.72232 | -13.55664 | 4405 ft | 229 kts | 290° |
| 2026-05-06 11:52 | 28.72692 | -13.57362 | 4245 ft | 219 kts | 290° |
| 2026-05-06 11:52 | 28.73132 | -13.58998 | 4087 ft | 212 kts | 289° |
| 2026-05-06 11:52 | 28.73551 | -13.60569 | 3911 ft | 202 kts | 290° |
| 2026-05-06 11:53 | 28.73954 | -13.62076 | 3751 ft | 200 kts | 290° |
| 2026-05-06 11:53 | 28.74366 | -13.63614 | 3590 ft | 201 kts | 290° |
| 2026-05-06 11:53 | 28.74774 | -13.65140 | 3459 ft | 202 kts | 290° |
| 2026-05-06 11:53 | 28.75202 | -13.66643 | 3295 ft | 195 kts | 299° |
| 2026-05-06 11:54 | 28.76060 | -13.67673 | 3171 ft | 174 kts | 330° |
| 2026-05-06 11:54 | 28.77047 | -13.68413 | 3017 ft | 165 kts | 329° |
| 2026-05-06 11:54 | 28.77989 | -13.69100 | 2882 ft | 158 kts | 341° |
| 2026-05-06 11:54 | 28.79028 | -13.69077 | 2756 ft | 151 kts | 23° |
| 2026-05-06 11:55 | 28.80042 | -13.68644 | 2762 ft | 160 kts | 20° |
| 2026-05-06 11:55 | 28.81067 | -13.68216 | 2702 ft | 150 kts | 21° |
| 2026-05-06 11:55 | 28.82022 | -13.67771 | 2581 ft | 153 kts | 24° |
| 2026-05-06 11:55 | 28.82978 | -13.67254 | 2385 ft | 150 kts | 26° |
| 2026-05-06 11:56 | 28.83870 | -13.66743 | 2173 ft | 138 kts | 28° |
| 2026-05-06 11:56 | 28.84701 | -13.66261 | 2021 ft | 134 kts | 27° |
| 2026-05-06 11:56 | 28.85534 | -13.65775 | 1833 ft | 135 kts | 27° |
| 2026-05-06 11:56 | 28.86360 | -13.65293 | 1647 ft | 132 kts | 28° |
| 2026-05-06 11:57 | 28.87200 | -13.64804 | 1474 ft | 140 kts | 29° |
| 2026-05-06 11:57 | 28.88088 | -13.64286 | 1292 ft | 143 kts | 30° |
| 2026-05-06 11:57 | 28.88960 | -13.63753 | 1042 ft | 142 kts | 33° |
| 2026-05-06 11:57 | 28.89827 | -13.63245 | 860 ft | 139 kts | 28° |
| 2026-05-06 11:58 | 28.90707 | -13.62745 | 708 ft | 143 kts | 30° |
| 2026-05-06 11:58 | 28.91609 | -13.62237 | 630 ft | 146 kts | 31° |
| 2026-05-06 11:58 | 28.92506 | -13.61708 | 410 ft | 144 kts | 33° |
| 2026-05-06 11:58 | 28.93385 | -13.61198 | 161 ft | 141 kts | 32° |
| 2026-05-06 11:59 | 28.94237 | -13.60699 | 31 ft | 129 kts | 27° |
| 2026-05-06 11:59 | 28.94866 | -13.60339 | 44 ft | 69 kts | 27° |
| 2026-05-06 11:59 | 28.95131 | -13.60214 | 49 ft | 33 kts | 10° |
| 2026-05-06 11:59 | 28.95270 | -13.60209 | 45 ft | 11 kts | 360° |
| 2026-05-06 12:00 | 28.95329 | -13.60252 | 49 ft | 9 kts | 301° |
| 2026-05-06 12:00 | 28.95358 | -13.60316 | 49 ft | 9 kts | 298° |
| 2026-05-06 12:00 | 28.95378 | -13.60381 | 49 ft | 9 kts | 258° |
| 2026-05-06 12:00 | 28.95333 | -13.60425 | 49 ft | 9 kts | 208° |
| 2026-05-06 12:01 | 28.95281 | -13.60455 | 49 ft | 8 kts | 206° |
| 2026-05-06 12:01 | 28.95230 | -13.60484 | 49 ft | 8 kts | 206° |
| 2026-05-06 12:01 | 28.95180 | -13.60512 | 49 ft | 8 kts | 206° |
| 2026-05-06 12:01 | 28.95132 | -13.60540 | 49 ft | 8 kts | 210° |
| 2026-05-06 12:02 | 28.95089 | -13.60575 | 49 ft | 8 kts | 221° |
| 2026-05-06 12:02 | 28.95038 | -13.60621 | 49 ft | 11 kts | 210° |
| 2026-05-06 12:02 | 28.94984 | -13.60659 | 49 ft | 8 kts | 237° |
| 2026-05-06 12:02 | 28.94993 | -13.60710 | 49 ft | 7 kts | 297° |
| 2026-05-06 12:03 | 28.95008 | -13.60746 | 49 ft | 3 kts | 296° |
| 2026-05-06 12:03 | 28.95012 | -13.60753 | 49 ft | 0 kts | 296° |